Terminal Aerodrome Forecast
Issued by NWS Buffalo, NY

Home | Current Version | Previous Version | Text Only | Print | Product List | Glossary On
Versions: 1 2 3 4 5 6 7 8 9 10 11 12 13 14 15 16 17 18 19 20 21 22 23 24 25 26 27
000
FTUS41 KBUF 181731
TAFART
TAF
KART 181731Z 1818/1918 VRB04KT 2SM -FZRA BR OVC015
     FM182000 18007KT 4SM -RA BR OVC012
     FM190400 24009KT 6SM -DZ OVC012
     FM191100 22013G24KT P6SM OVC012
     FM191700 24021G37KT P6SM OVC012=

USA.gov is the U.S. government's official web portal to all federal, state and local government web resources and services.